sensor_id;sensor_type;location;lat;lon;timestamp;P1;durP1;ratioP1;P2;durP2;ratioP2
18334;SDS011;9293;49.524;10.964;2024-01-15T00:01:33;40.80;;;19.73;;
18334;SDS011;9293;49.524;10.964;2024-01-15T00:04:01;43.08;;;19.52;;
18334;SDS011;9293;49.524;10.964;2024-01-15T00:06:30;44.30;;;20.10;;
18334;SDS011;9293;49.524;10.964;2024-01-15T00:09:00;43.55;;;20.38;;
18334;SDS011;9293;49.524;10.964;2024-01-15T00:11:29;42.22;;;19.50;;
18334;SDS011;9293;49.524;10.964;2024-01-15T00:13:57;47.90;;;18.98;;
18334;SDS011;9293;49.524;10.964;2024-01-15T00:16:26;45.25;;;19.63;;
18334;SDS011;9293;49.524;10.964;2024-01-15T00:18:54;48.20;;;20.70;;
18334;SDS011;9293;49.524;10.964;2024-01-15T00:21:23;46.17;;;19.13;;
18334;SDS011;9293;49.524;10.964;2024-01-15T00:23:51;47.35;;;22.10;;
18334;SDS011;9293;49.524;10.964;2024-01-15T00:26:19;48.05;;;20.25;;
18334;SDS011;9293;49.524;10.964;2024-01-15T00:28:47;43.95;;;19.60;;
18334;SDS011;9293;49.524;10.964;2024-01-15T00:31:16;39.35;;;18.35;;
18334;SDS011;9293;49.524;10.964;2024-01-15T00:33:45;52.85;;;21.55;;
18334;SDS011;9293;49.524;10.964;2024-01-15T00:36:14;47.45;;;20.67;;
18334;SDS011;9293;49.524;10.964;2024-01-15T00:38:43;44.85;;;21.33;;
18334;SDS011;9293;49.524;10.964;2024-01-15T00:41:12;47.65;;;21.98;;
18334;SDS011;9293;49.524;10.964;2024-01-15T00:43:40;43.72;;;18.98;;
18334;SDS011;9293;49.524;10.964;2024-01-15T00:46:09;44.80;;;20.60;;
18334;SDS011;9293;49.524;10.964;2024-01-15T00:48:37;46.97;;;19.65;;
18334;SDS011;9293;49.524;10.964;2024-01-15T00:51:06;51.25;;;22.08;;
18334;SDS011;9293;49.524;10.964;2024-01-15T00:53:34;41.22;;;20.40;;
18334;SDS011;9293;49.524;10.964;2024-01-15T00:56:03;47.90;;;21.35;;
18334;SDS011;9293;49.524;10.964;2024-01-15T00:58:31;49.92;;;21.05;;
18334;SDS011;9293;49.524;10.964;2024-01-15T01:01:00;48.03;;;21.25;;
18334;SDS011;9293;49.524;10.964;2024-01-15T01:03:28;47.80;;;20.85;;
18334;SDS011;9293;49.524;10.964;2024-01-15T01:05:57;45.65;;;21.67;;
18334;SDS011;9293;49.524;10.964;2024-01-15T01:08:25;49.78;;;22.40;;
18334;SDS011;9293;49.524;10.964;2024-01-15T01:10:55;45.35;;;20.77;;
18334;SDS011;9293;49.524;10.964;2024-01-15T01:13:24;50.75;;;21.38;;
18334;SDS011;9293;49.524;10.964;2024-01-15T01:15:52;47.05;;;20.90;;
18334;SDS011;9293;49.524;10.964;2024-01-15T01:18:20;46.90;;;21.45;;
18334;SDS011;9293;49.524;10.964;2024-01-15T01:20:52;46.28;;;22.02;;
18334;SDS011;9293;49.524;10.964;2024-01-15T01:23:21;47.90;;;21.88;;
18334;SDS011;9293;49.524;10.964;2024-01-15T01:25:50;42.40;;;20.90;;
18334;SDS011;9293;49.524;10.964;2024-01-15T01:28:21;43.63;;;20.60;;
18334;SDS011;9293;49.524;10.964;2024-01-15T01:30:49;42.30;;;20.25;;
18334;SDS011;9293;49.524;10.964;2024-01-15T01:33:18;47.13;;;21.60;;
18334;SDS011;9293;49.524;10.964;2024-01-15T01:35:46;49.50;;;21.40;;
18334;SDS011;9293;49.524;10.964;2024-01-15T01:38:15;46.63;;;22.08;;
18334;SDS011;9293;49.524;10.964;2024-01-15T01:40:43;47.58;;;22.48;;
18334;SDS011;9293;49.524;10.964;2024-01-15T01:43:11;51.05;;;21.73;;
18334;SDS011;9293;49.524;10.964;2024-01-15T01:45:40;47.58;;;21.45;;
18334;SDS011;9293;49.524;10.964;2024-01-15T01:48:08;48.47;;;22.05;;
18334;SDS011;9293;49.524;10.964;2024-01-15T01:50:36;50.63;;;23.40;;
18334;SDS011;9293;49.524;10.964;2024-01-15T01:53:05;48.35;;;23.05;;
18334;SDS011;9293;49.524;10.964;2024-01-15T01:55:34;45.05;;;21.52;;
18334;SDS011;9293;49.524;10.964;2024-01-15T01:58:03;50.35;;;20.90;;
18334;SDS011;9293;49.524;10.964;2024-01-15T02:00:32;51.28;;;22.60;;
18334;SDS011;9293;49.524;10.964;2024-01-15T02:03:01;48.65;;;21.65;;
18334;SDS011;9293;49.524;10.964;2024-01-15T02:05:30;53.40;;;22.50;;
18334;SDS011;9293;49.524;10.964;2024-01-15T02:07:59;46.13;;;19.45;;
18334;SDS011;9293;49.524;10.964;2024-01-15T02:10:28;50.63;;;22.02;;
18334;SDS011;9293;49.524;10.964;2024-01-15T02:12:56;47.30;;;20.92;;
18334;SDS011;9293;49.524;10.964;2024-01-15T02:15:24;47.45;;;21.92;;
18334;SDS011;9293;49.524;10.964;2024-01-15T02:18:11;44.47;;;21.80;;
18334;SDS011;9293;49.524;10.964;2024-01-15T02:20:39;45.22;;;19.92;;
18334;SDS011;9293;49.524;10.964;2024-01-15T02:25:41;46.08;;;20.67;;
18334;SDS011;9293;49.524;10.964;2024-01-15T02:28:13;49.85;;;20.67;;
18334;SDS011;9293;49.524;10.964;2024-01-15T02:30:43;45.27;;;21.97;;
18334;SDS011;9293;49.524;10.964;2024-01-15T02:33:19;45.30;;;20.30;;
18334;SDS011;9293;49.524;10.964;2024-01-15T02:35:48;41.25;;;18.77;;
18334;SDS011;9293;49.524;10.964;2024-01-15T02:38:17;44.15;;;20.77;;
18334;SDS011;9293;49.524;10.964;2024-01-15T02:40:46;42.65;;;20.02;;
18334;SDS011;9293;49.524;10.964;2024-01-15T02:43:15;45.25;;;19.58;;
18334;SDS011;9293;49.524;10.964;2024-01-15T02:45:43;39.42;;;18.75;;
18334;SDS011;9293;49.524;10.964;2024-01-15T02:48:11;36.20;;;18.05;;
18334;SDS011;9293;49.524;10.964;2024-01-15T02:50:40;39.67;;;18.95;;
18334;SDS011;9293;49.524;10.964;2024-01-15T02:53:08;38.38;;;18.48;;
18334;SDS011;9293;49.524;10.964;2024-01-15T02:55:36;40.30;;;19.35;;
18334;SDS011;9293;49.524;10.964;2024-01-15T02:58:05;48.63;;;20.17;;
18334;SDS011;9293;49.524;10.964;2024-01-15T03:00:33;41.58;;;18.35;;
18334;SDS011;9293;49.524;10.964;2024-01-15T03:03:01;43.33;;;19.58;;
18334;SDS011;9293;49.524;10.964;2024-01-15T03:05:30;40.63;;;20.10;;
18334;SDS011;9293;49.524;10.964;2024-01-15T03:07:58;38.50;;;18.00;;
18334;SDS011;9293;49.524;10.964;2024-01-15T03:10:26;39.97;;;18.13;;
18334;SDS011;9293;49.524;10.964;2024-01-15T03:12:55;38.85;;;18.52;;
18334;SDS011;9293;49.524;10.964;2024-01-15T03:15:23;34.60;;;16.70;;
18334;SDS011;9293;49.524;10.964;2024-01-15T03:17:51;39.95;;;17.40;;
18334;SDS011;9293;49.524;10.964;2024-01-15T03:20:20;34.90;;;17.17;;
18334;SDS011;9293;49.524;10.964;2024-01-15T03:22:48;35.05;;;16.73;;
18334;SDS011;9293;49.524;10.964;2024-01-15T03:25:16;35.28;;;17.40;;
18334;SDS011;9293;49.524;10.964;2024-01-15T03:27:45;37.80;;;17.02;;
18334;SDS011;9293;49.524;10.964;2024-01-15T03:30:13;32.17;;;15.52;;
18334;SDS011;9293;49.524;10.964;2024-01-15T03:32:42;33.40;;;15.82;;
18334;SDS011;9293;49.524;10.964;2024-01-15T03:35:10;30.98;;;15.23;;
18334;SDS011;9293;49.524;10.964;2024-01-15T03:37:39;33.17;;;15.52;;
18334;SDS011;9293;49.524;10.964;2024-01-15T03:40:07;32.72;;;15.30;;
18334;SDS011;9293;49.524;10.964;2024-01-15T03:42:36;32.35;;;15.38;;
18334;SDS011;9293;49.524;10.964;2024-01-15T03:45:05;33.22;;;15.68;;
18334;SDS011;9293;49.524;10.964;2024-01-15T03:47:33;33.03;;;15.32;;
18334;SDS011;9293;49.524;10.964;2024-01-15T03:50:02;32.28;;;15.35;;
18334;SDS011;9293;49.524;10.964;2024-01-15T03:52:30;33.55;;;15.80;;
18334;SDS011;9293;49.524;10.964;2024-01-15T03:54:58;30.75;;;14.18;;
18334;SDS011;9293;49.524;10.964;2024-01-15T03:57:27;33.92;;;15.82;;
18334;SDS011;9293;49.524;10.964;2024-01-15T03:59:55;29.88;;;15.30;;
18334;SDS011;9293;49.524;10.964;2024-01-15T04:02:25;33.97;;;16.17;;
18334;SDS011;9293;49.524;10.964;2024-01-15T04:04:53;29.58;;;15.25;;
18334;SDS011;9293;49.524;10.964;2024-01-15T04:07:22;29.17;;;14.45;;
18334;SDS011;9293;49.524;10.964;2024-01-15T04:09:50;27.23;;;14.15;;
18334;SDS011;9293;49.524;10.964;2024-01-15T04:12:18;26.90;;;14.38;;
18334;SDS011;9293;49.524;10.964;2024-01-15T04:14:49;32.13;;;14.88;;
18334;SDS011;9293;49.524;10.964;2024-01-15T04:17:25;29.65;;;14.52;;
18334;SDS011;9293;49.524;10.964;2024-01-15T04:19:54;30.73;;;13.90;;
18334;SDS011;9293;49.524;10.964;2024-01-15T04:22:23;27.00;;;13.02;;
18334;SDS011;9293;49.524;10.964;2024-01-15T04:24:53;27.77;;;13.45;;
18334;SDS011;9293;49.524;10.964;2024-01-15T04:27:21;28.00;;;13.55;;
18334;SDS011;9293;49.524;10.964;2024-01-15T04:29:49;29.98;;;13.82;;
18334;SDS011;9293;49.524;10.964;2024-01-15T04:32:18;27.58;;;14.45;;
18334;SDS011;9293;49.524;10.964;2024-01-15T04:34:46;27.40;;;13.82;;
18334;SDS011;9293;49.524;10.964;2024-01-15T04:37:15;27.50;;;13.07;;
18334;SDS011;9293;49.524;10.964;2024-01-15T04:39:43;30.30;;;14.90;;
18334;SDS011;9293;49.524;10.964;2024-01-15T04:42:11;26.17;;;14.13;;
18334;SDS011;9293;49.524;10.964;2024-01-15T04:44:40;26.23;;;12.73;;
18334;SDS011;9293;49.524;10.964;2024-01-15T04:47:08;28.02;;;13.55;;
18334;SDS011;9293;49.524;10.964;2024-01-15T04:49:37;26.55;;;13.57;;
18334;SDS011;9293;49.524;10.964;2024-01-15T04:52:05;30.02;;;14.05;;
18334;SDS011;9293;49.524;10.964;2024-01-15T04:54:33;31.75;;;14.95;;
18334;SDS011;9293;49.524;10.964;2024-01-15T04:57:02;26.20;;;13.70;;
18334;SDS011;9293;49.524;10.964;2024-01-15T04:59:30;30.38;;;14.90;;
18334;SDS011;9293;49.524;10.964;2024-01-15T05:01:59;33.28;;;14.18;;
18334;SDS011;9293;49.524;10.964;2024-01-15T05:04:27;29.67;;;14.25;;
18334;SDS011;9293;49.524;10.964;2024-01-15T05:06:55;34.20;;;15.35;;
18334;SDS011;9293;49.524;10.964;2024-01-15T05:09:24;30.42;;;14.40;;
18334;SDS011;9293;49.524;10.964;2024-01-15T05:11:56;33.97;;;15.38;;
18334;SDS011;9293;49.524;10.964;2024-01-15T05:14:25;30.67;;;15.70;;
18334;SDS011;9293;49.524;10.964;2024-01-15T05:16:53;30.85;;;14.95;;
18334;SDS011;9293;49.524;10.964;2024-01-15T05:19:21;31.95;;;13.95;;
18334;SDS011;9293;49.524;10.964;2024-01-15T05:21:50;31.20;;;14.82;;
18334;SDS011;9293;49.524;10.964;2024-01-15T05:24:18;30.48;;;14.38;;
18334;SDS011;9293;49.524;10.964;2024-01-15T05:26:46;29.83;;;15.40;;
18334;SDS011;9293;49.524;10.964;2024-01-15T05:29:15;27.05;;;13.50;;
18334;SDS011;9293;49.524;10.964;2024-01-15T05:31:43;29.63;;;15.52;;
18334;SDS011;9293;49.524;10.964;2024-01-15T05:34:12;28.30;;;14.10;;
18334;SDS011;9293;49.524;10.964;2024-01-15T05:36:40;28.80;;;13.35;;
18334;SDS011;9293;49.524;10.964;2024-01-15T05:39:09;27.65;;;12.88;;
18334;SDS011;9293;49.524;10.964;2024-01-15T05:41:37;26.67;;;13.32;;
18334;SDS011;9293;49.524;10.964;2024-01-15T05:44:05;26.42;;;13.63;;
18334;SDS011;9293;49.524;10.964;2024-01-15T05:46:34;27.95;;;13.05;;
18334;SDS011;9293;49.524;10.964;2024-01-15T05:49:02;26.13;;;13.68;;
18334;SDS011;9293;49.524;10.964;2024-01-15T05:51:30;23.85;;;13.45;;
18334;SDS011;9293;49.524;10.964;2024-01-15T05:53:59;26.27;;;12.48;;
18334;SDS011;9293;49.524;10.964;2024-01-15T05:56:27;30.63;;;13.13;;
18334;SDS011;9293;49.524;10.964;2024-01-15T05:59:00;20.90;;;12.07;;
18334;SDS011;9293;49.524;10.964;2024-01-15T06:01:32;25.17;;;13.00;;
18334;SDS011;9293;49.524;10.964;2024-01-15T06:04:00;25.73;;;11.82;;
18334;SDS011;9293;49.524;10.964;2024-01-15T06:06:29;28.23;;;13.25;;
18334;SDS011;9293;49.524;10.964;2024-01-15T06:08:57;26.98;;;13.10;;
18334;SDS011;9293;49.524;10.964;2024-01-15T06:11:32;27.23;;;12.98;;
18334;SDS011;9293;49.524;10.964;2024-01-15T06:14:01;26.85;;;13.35;;
18334;SDS011;9293;49.524;10.964;2024-01-15T06:16:29;27.85;;;12.77;;
18334;SDS011;9293;49.524;10.964;2024-01-15T06:18:57;32.92;;;14.20;;
18334;SDS011;9293;49.524;10.964;2024-01-15T06:21:26;30.08;;;13.32;;
18334;SDS011;9293;49.524;10.964;2024-01-15T06:23:54;28.65;;;13.45;;
18334;SDS011;9293;49.524;10.964;2024-01-15T06:26:24;31.23;;;14.68;;
18334;SDS011;9293;49.524;10.964;2024-01-15T06:28:52;31.73;;;13.65;;
18334;SDS011;9293;49.524;10.964;2024-01-15T06:31:20;30.88;;;14.35;;
18334;SDS011;9293;49.524;10.964;2024-01-15T06:33:49;31.33;;;15.15;;
18334;SDS011;9293;49.524;10.964;2024-01-15T06:36:17;34.45;;;13.85;;
18334;SDS011;9293;49.524;10.964;2024-01-15T06:38:46;28.63;;;13.77;;
18334;SDS011;9293;49.524;10.964;2024-01-15T06:41:14;32.72;;;14.65;;
18334;SDS011;9293;49.524;10.964;2024-01-15T06:43:43;27.08;;;13.02;;
18334;SDS011;9293;49.524;10.964;2024-01-15T06:46:11;27.33;;;14.05;;
18334;SDS011;9293;49.524;10.964;2024-01-15T06:48:40;24.73;;;12.85;;
18334;SDS011;9293;49.524;10.964;2024-01-15T06:51:11;23.98;;;12.63;;
18334;SDS011;9293;49.524;10.964;2024-01-15T06:53:39;27.30;;;13.27;;
18334;SDS011;9293;49.524;10.964;2024-01-15T06:56:08;27.92;;;14.40;;
18334;SDS011;9293;49.524;10.964;2024-01-15T06:58:36;24.73;;;13.07;;
18334;SDS011;9293;49.524;10.964;2024-01-15T07:03:36;23.90;;;12.35;;
18334;SDS011;9293;49.524;10.964;2024-01-15T07:06:05;24.25;;;12.13;;
18334;SDS011;9293;49.524;10.964;2024-01-15T07:08:34;24.45;;;13.88;;
18334;SDS011;9293;49.524;10.964;2024-01-15T07:11:06;26.05;;;12.75;;
18334;SDS011;9293;49.524;10.964;2024-01-15T07:13:35;26.50;;;13.43;;
18334;SDS011;9293;49.524;10.964;2024-01-15T07:16:04;23.25;;;12.05;;
18334;SDS011;9293;49.524;10.964;2024-01-15T07:18:41;24.13;;;12.30;;
18334;SDS011;9293;49.524;10.964;2024-01-15T07:21:10;23.13;;;12.05;;
18334;SDS011;9293;49.524;10.964;2024-01-15T07:23:38;25.33;;;12.68;;
18334;SDS011;9293;49.524;10.964;2024-01-15T07:26:06;27.95;;;12.82;;
18334;SDS011;9293;49.524;10.964;2024-01-15T07:28:35;24.35;;;12.25;;
18334;SDS011;9293;49.524;10.964;2024-01-15T07:31:03;26.00;;;13.52;;
18334;SDS011;9293;49.524;10.964;2024-01-15T07:33:31;23.40;;;12.23;;
18334;SDS011;9293;49.524;10.964;2024-01-15T07:36:00;27.95;;;13.90;;
18334;SDS011;9293;49.524;10.964;2024-01-15T07:38:30;26.88;;;13.75;;
18334;SDS011;9293;49.524;10.964;2024-01-15T07:40:58;24.10;;;11.65;;
18334;SDS011;9293;49.524;10.964;2024-01-15T07:43:27;27.45;;;13.57;;
18334;SDS011;9293;49.524;10.964;2024-01-15T07:45:55;24.23;;;13.07;;
18334;SDS011;9293;49.524;10.964;2024-01-15T07:48:25;26.67;;;12.88;;
18334;SDS011;9293;49.524;10.964;2024-01-15T07:50:54;24.55;;;13.55;;
18334;SDS011;9293;49.524;10.964;2024-01-15T07:53:22;30.23;;;14.85;;
18334;SDS011;9293;49.524;10.964;2024-01-15T07:55:51;24.60;;;12.73;;
18334;SDS011;9293;49.524;10.964;2024-01-15T07:58:19;25.35;;;12.85;;
18334;SDS011;9293;49.524;10.964;2024-01-15T08:00:47;23.45;;;12.45;;
18334;SDS011;9293;49.524;10.964;2024-01-15T08:03:16;24.88;;;13.02;;
18334;SDS011;9293;49.524;10.964;2024-01-15T08:05:44;25.75;;;13.35;;
18334;SDS011;9293;49.524;10.964;2024-01-15T08:08:13;25.08;;;12.35;;
18334;SDS011;9293;49.524;10.964;2024-01-15T08:10:41;22.80;;;11.80;;
18334;SDS011;9293;49.524;10.964;2024-01-15T08:13:09;23.75;;;12.10;;
18334;SDS011;9293;49.524;10.964;2024-01-15T08:15:38;26.88;;;13.70;;
18334;SDS011;9293;49.524;10.964;2024-01-15T08:18:06;22.20;;;12.07;;
18334;SDS011;9293;49.524;10.964;2024-01-15T08:20:34;23.00;;;12.52;;
18334;SDS011;9293;49.524;10.964;2024-01-15T08:23:03;27.08;;;13.15;;
18334;SDS011;9293;49.524;10.964;2024-01-15T08:25:32;21.05;;;12.00;;
18334;SDS011;9293;49.524;10.964;2024-01-15T08:28:00;23.63;;;12.48;;
18334;SDS011;9293;49.524;10.964;2024-01-15T08:30:29;23.05;;;12.43;;
18334;SDS011;9293;49.524;10.964;2024-01-15T08:32:57;24.63;;;12.30;;
18334;SDS011;9293;49.524;10.964;2024-01-15T08:35:36;22.80;;;12.15;;
18334;SDS011;9293;49.524;10.964;2024-01-15T08:38:05;26.20;;;12.18;;
18334;SDS011;9293;49.524;10.964;2024-01-15T08:40:33;24.17;;;12.30;;
18334;SDS011;9293;49.524;10.964;2024-01-15T08:43:01;23.95;;;13.20;;
18334;SDS011;9293;49.524;10.964;2024-01-15T08:45:30;22.52;;;13.30;;
18334;SDS011;9293;49.524;10.964;2024-01-15T08:47:58;24.50;;;11.82;;
18334;SDS011;9293;49.524;10.964;2024-01-15T08:50:30;20.05;;;12.13;;
18334;SDS011;9293;49.524;10.964;2024-01-15T08:53:01;22.40;;;12.52;;
18334;SDS011;9293;49.524;10.964;2024-01-15T08:55:29;23.48;;;12.55;;
18334;SDS011;9293;49.524;10.964;2024-01-15T08:57:57;23.92;;;12.27;;
18334;SDS011;9293;49.524;10.964;2024-01-15T09:00:26;22.55;;;12.35;;
18334;SDS011;9293;49.524;10.964;2024-01-15T09:02:54;21.77;;;11.60;;
18334;SDS011;9293;49.524;10.964;2024-01-15T09:05:24;24.92;;;12.52;;
18334;SDS011;9293;49.524;10.964;2024-01-15T09:07:52;20.58;;;11.15;;
18334;SDS011;9293;49.524;10.964;2024-01-15T09:10:20;20.80;;;11.88;;
18334;SDS011;9293;49.524;10.964;2024-01-15T09:12:49;24.38;;;13.05;;
18334;SDS011;9293;49.524;10.964;2024-01-15T09:15:17;21.98;;;12.95;;
18334;SDS011;9293;49.524;10.964;2024-01-15T09:17:46;24.02;;;12.88;;
18334;SDS011;9293;49.524;10.964;2024-01-15T09:20:14;23.63;;;11.73;;
18334;SDS011;9293;49.524;10.964;2024-01-15T09:22:43;23.10;;;13.07;;
18334;SDS011;9293;49.524;10.964;2024-01-15T09:25:12;24.02;;;13.65;;
18334;SDS011;9293;49.524;10.964;2024-01-15T09:27:40;23.92;;;12.52;;
18334;SDS011;9293;49.524;10.964;2024-01-15T09:30:09;26.02;;;12.63;;
18334;SDS011;9293;49.524;10.964;2024-01-15T09:32:39;23.48;;;12.35;;
18334;SDS011;9293;49.524;10.964;2024-01-15T09:35:07;24.55;;;12.65;;
18334;SDS011;9293;49.524;10.964;2024-01-15T09:37:36;20.25;;;11.52;;
18334;SDS011;9293;49.524;10.964;2024-01-15T09:40:13;22.15;;;11.75;;
18334;SDS011;9293;49.524;10.964;2024-01-15T09:42:45;20.13;;;10.68;;
18334;SDS011;9293;49.524;10.964;2024-01-15T09:45:14;20.98;;;10.95;;
18334;SDS011;9293;49.524;10.964;2024-01-15T09:47:43;19.80;;;11.20;;
18334;SDS011;9293;49.524;10.964;2024-01-15T09:50:12;20.50;;;11.35;;
18334;SDS011;9293;49.524;10.964;2024-01-15T09:52:43;19.00;;;11.57;;
18334;SDS011;9293;49.524;10.964;2024-01-15T09:55:13;21.10;;;11.10;;
18334;SDS011;9293;49.524;10.964;2024-01-15T09:57:43;23.57;;;10.57;;
18334;SDS011;9293;49.524;10.964;2024-01-15T10:00:14;21.25;;;12.00;;
18334;SDS011;9293;49.524;10.964;2024-01-15T10:02:47;19.95;;;10.73;;
18334;SDS011;9293;49.524;10.964;2024-01-15T10:05:15;22.80;;;11.63;;
18334;SDS011;9293;49.524;10.964;2024-01-15T10:07:47;19.33;;;11.18;;
18334;SDS011;9293;49.524;10.964;2024-01-15T10:10:17;21.08;;;12.38;;
18334;SDS011;9293;49.524;10.964;2024-01-15T10:12:46;21.90;;;12.10;;
18334;SDS011;9293;49.524;10.964;2024-01-15T10:15:14;22.02;;;12.45;;
18334;SDS011;9293;49.524;10.964;2024-01-15T10:17:44;25.65;;;12.48;;
18334;SDS011;9293;49.524;10.964;2024-01-15T10:20:12;24.23;;;12.80;;
18334;SDS011;9293;49.524;10.964;2024-01-15T10:22:41;21.40;;;12.02;;
18334;SDS011;9293;49.524;10.964;2024-01-15T10:25:11;20.67;;;12.25;;
18334;SDS011;9293;49.524;10.964;2024-01-15T10:27:43;19.17;;;11.40;;
18334;SDS011;9293;49.524;10.964;2024-01-15T10:30:11;18.55;;;11.23;;
18334;SDS011;9293;49.524;10.964;2024-01-15T10:32:42;18.70;;;11.65;;
18334;SDS011;9293;49.524;10.964;2024-01-15T10:35:35;20.23;;;11.23;;
18334;SDS011;9293;49.524;10.964;2024-01-15T10:38:04;18.77;;;10.77;;
18334;SDS011;9293;49.524;10.964;2024-01-15T10:40:33;19.67;;;10.60;;
18334;SDS011;9293;49.524;10.964;2024-01-15T10:43:02;19.35;;;10.93;;
18334;SDS011;9293;49.524;10.964;2024-01-15T10:45:33;18.67;;;11.02;;
18334;SDS011;9293;49.524;10.964;2024-01-15T10:48:04;19.65;;;11.13;;
18334;SDS011;9293;49.524;10.964;2024-01-15T10:50:38;19.42;;;11.82;;
18334;SDS011;9293;49.524;10.964;2024-01-15T10:53:08;17.63;;;10.68;;
18334;SDS011;9293;49.524;10.964;2024-01-15T10:55:37;18.35;;;10.88;;
18334;SDS011;9293;49.524;10.964;2024-01-15T10:58:07;21.67;;;12.68;;
18334;SDS011;9293;49.524;10.964;2024-01-15T11:00:36;21.13;;;12.82;;
18334;SDS011;9293;49.524;10.964;2024-01-15T11:03:06;20.17;;;11.93;;
18334;SDS011;9293;49.524;10.964;2024-01-15T11:05:38;22.00;;;12.68;;
18334;SDS011;9293;49.524;10.964;2024-01-15T11:08:07;17.38;;;11.43;;
18334;SDS011;9293;49.524;10.964;2024-01-15T11:13:39;19.40;;;11.95;;
18334;SDS011;9293;49.524;10.964;2024-01-15T11:16:09;17.83;;;11.30;;
18334;SDS011;9293;49.524;10.964;2024-01-15T11:21:25;16.98;;;9.95;;
18334;SDS011;9293;49.524;10.964;2024-01-15T11:23:56;19.33;;;11.43;;
18334;SDS011;9293;49.524;10.964;2024-01-15T11:26:44;18.27;;;10.85;;
18334;SDS011;9293;49.524;10.964;2024-01-15T11:32:06;17.40;;;10.43;;
18334;SDS011;9293;49.524;10.964;2024-01-15T11:40:19;16.33;;;10.27;;
18334;SDS011;9293;49.524;10.964;2024-01-15T11:42:49;18.67;;;10.45;;
18334;SDS011;9293;49.524;10.964;2024-01-15T11:45:20;17.75;;;10.15;;
18334;SDS011;9293;49.524;10.964;2024-01-15T11:50:33;15.57;;;9.82;;
18334;SDS011;9293;49.524;10.964;2024-01-15T11:53:07;15.68;;;9.35;;
18334;SDS011;9293;49.524;10.964;2024-01-15T11:55:47;17.90;;;10.13;;
18334;SDS011;9293;49.524;10.964;2024-01-15T11:58:19;18.20;;;10.07;;
18334;SDS011;9293;49.524;10.964;2024-01-15T12:00:48;15.10;;;10.10;;
18334;SDS011;9293;49.524;10.964;2024-01-15T12:03:23;16.95;;;10.68;;
18334;SDS011;9293;49.524;10.964;2024-01-15T12:05:52;17.85;;;10.40;;
18334;SDS011;9293;49.524;10.964;2024-01-15T12:08:24;15.07;;;9.35;;
18334;SDS011;9293;49.524;10.964;2024-01-15T12:10:53;15.63;;;10.02;;
18334;SDS011;9293;49.524;10.964;2024-01-15T12:13:22;16.17;;;10.15;;
18334;SDS011;9293;49.524;10.964;2024-01-15T12:15:50;15.68;;;9.48;;
18334;SDS011;9293;49.524;10.964;2024-01-15T12:18:19;17.13;;;10.02;;
18334;SDS011;9293;49.524;10.964;2024-01-15T12:20:47;18.55;;;10.68;;
18334;SDS011;9293;49.524;10.964;2024-01-15T12:23:16;15.52;;;9.40;;
18334;SDS011;9293;49.524;10.964;2024-01-15T12:25:45;14.15;;;9.60;;
18334;SDS011;9293;49.524;10.964;2024-01-15T12:28:15;14.70;;;9.52;;
18334;SDS011;9293;49.524;10.964;2024-01-15T12:30:46;15.38;;;9.63;;
18334;SDS011;9293;49.524;10.964;2024-01-15T12:33:17;15.23;;;9.60;;
18334;SDS011;9293;49.524;10.964;2024-01-15T12:35:53;14.25;;;8.85;;
18334;SDS011;9293;49.524;10.964;2024-01-15T12:40:53;13.63;;;8.80;;
18334;SDS011;9293;49.524;10.964;2024-01-15T12:43:22;15.18;;;9.95;;
18334;SDS011;9293;49.524;10.964;2024-01-15T12:45:50;12.55;;;8.30;;
18334;SDS011;9293;49.524;10.964;2024-01-15T12:48:19;14.70;;;9.07;;
18334;SDS011;9293;49.524;10.964;2024-01-15T12:50:47;18.05;;;9.52;;
18334;SDS011;9293;49.524;10.964;2024-01-15T12:53:15;15.75;;;9.32;;
18334;SDS011;9293;49.524;10.964;2024-01-15T12:55:45;14.05;;;8.82;;
18334;SDS011;9293;49.524;10.964;2024-01-15T12:58:13;14.27;;;8.68;;
18334;SDS011;9293;49.524;10.964;2024-01-15T13:00:48;14.18;;;8.82;;
18334;SDS011;9293;49.524;10.964;2024-01-15T13:03:18;15.63;;;9.57;;
18334;SDS011;9293;49.524;10.964;2024-01-15T13:05:46;14.90;;;8.77;;
18334;SDS011;9293;49.524;10.964;2024-01-15T13:08:15;16.17;;;9.65;;
18334;SDS011;9293;49.524;10.964;2024-01-15T13:10:47;13.60;;;8.70;;
18334;SDS011;9293;49.524;10.964;2024-01-15T13:13:15;12.70;;;8.52;;
18334;SDS011;9293;49.524;10.964;2024-01-15T13:15:44;12.98;;;8.88;;
18334;SDS011;9293;49.524;10.964;2024-01-15T13:18:12;13.18;;;8.70;;
18334;SDS011;9293;49.524;10.964;2024-01-15T13:20:41;13.98;;;9.02;;
18334;SDS011;9293;49.524;10.964;2024-01-15T13:23:10;13.30;;;8.55;;
18334;SDS011;9293;49.524;10.964;2024-01-15T13:25:39;14.02;;;8.68;;
18334;SDS011;9293;49.524;10.964;2024-01-15T13:28:10;17.77;;;9.55;;
18334;SDS011;9293;49.524;10.964;2024-01-15T13:30:39;11.25;;;7.65;;
18334;SDS011;9293;49.524;10.964;2024-01-15T13:33:07;11.88;;;7.82;;
18334;SDS011;9293;49.524;10.964;2024-01-15T13:35:36;13.25;;;8.45;;
18334;SDS011;9293;49.524;10.964;2024-01-15T13:38:04;11.95;;;8.05;;
18334;SDS011;9293;49.524;10.964;2024-01-15T13:40:33;14.02;;;7.88;;
18334;SDS011;9293;49.524;10.964;2024-01-15T13:43:01;11.82;;;7.00;;
18334;SDS011;9293;49.524;10.964;2024-01-15T13:45:30;11.60;;;7.20;;
18334;SDS011;9293;49.524;10.964;2024-01-15T13:47:58;15.10;;;7.53;;
18334;SDS011;9293;49.524;10.964;2024-01-15T13:50:27;9.25;;;6.05;;
18334;SDS011;9293;49.524;10.964;2024-01-15T13:52:55;11.98;;;6.63;;
18334;SDS011;9293;49.524;10.964;2024-01-15T13:55:23;9.95;;;6.70;;
18334;SDS011;9293;49.524;10.964;2024-01-15T13:57:52;11.25;;;6.63;;
18334;SDS011;9293;49.524;10.964;2024-01-15T14:00:20;10.38;;;5.88;;
18334;SDS011;9293;49.524;10.964;2024-01-15T14:02:55;9.07;;;6.20;;
18334;SDS011;9293;49.524;10.964;2024-01-15T14:05:27;8.52;;;5.07;;
18334;SDS011;9293;49.524;10.964;2024-01-15T14:07:56;9.52;;;5.85;;
18334;SDS011;9293;49.524;10.964;2024-01-15T14:10:24;8.60;;;5.93;;
18334;SDS011;9293;49.524;10.964;2024-01-15T14:12:53;9.25;;;5.97;;
18334;SDS011;9293;49.524;10.964;2024-01-15T14:15:21;8.18;;;5.85;;
18334;SDS011;9293;49.524;10.964;2024-01-15T14:17:50;8.52;;;5.38;;
18334;SDS011;9293;49.524;10.964;2024-01-15T14:20:19;8.15;;;5.47;;
18334;SDS011;9293;49.524;10.964;2024-01-15T14:22:48;9.45;;;5.63;;
18334;SDS011;9293;49.524;10.964;2024-01-15T14:25:16;8.30;;;5.60;;
18334;SDS011;9293;49.524;10.964;2024-01-15T14:27:45;8.23;;;5.53;;
18334;SDS011;9293;49.524;10.964;2024-01-15T14:30:19;8.43;;;5.82;;
18334;SDS011;9293;49.524;10.964;2024-01-15T14:32:47;7.30;;;5.10;;
18334;SDS011;9293;49.524;10.964;2024-01-15T14:35:15;9.23;;;5.53;;
18334;SDS011;9293;49.524;10.964;2024-01-15T14:37:44;7.97;;;5.22;;
18334;SDS011;9293;49.524;10.964;2024-01-15T14:40:13;8.38;;;5.70;;
18334;SDS011;9293;49.524;10.964;2024-01-15T14:42:43;8.98;;;6.07;;
18334;SDS011;9293;49.524;10.964;2024-01-15T14:45:12;9.38;;;5.40;;
18334;SDS011;9293;49.524;10.964;2024-01-15T14:47:41;9.38;;;5.60;;
18334;SDS011;9293;49.524;10.964;2024-01-15T14:50:09;8.43;;;4.95;;
18334;SDS011;9293;49.524;10.964;2024-01-15T14:52:38;7.43;;;5.30;;
18334;SDS011;9293;49.524;10.964;2024-01-15T14:55:12;7.35;;;4.95;;
18334;SDS011;9293;49.524;10.964;2024-01-15T14:57:40;6.40;;;4.82;;
18334;SDS011;9293;49.524;10.964;2024-01-15T15:00:09;6.72;;;5.32;;
18334;SDS011;9293;49.524;10.964;2024-01-15T15:02:42;7.53;;;5.05;;